sensor_id;sensor_type;location;lat;lon;timestamp;temperature;humidity
80743;SHT31;70142;50.894;6.052;2023-10-09T00:01:11;18.82;71.22
80743;SHT31;70142;50.894;6.052;2023-10-09T00:03:46;18.83;71.26
80743;SHT31;70142;50.894;6.052;2023-10-09T00:06:23;18.77;71.53
80743;SHT31;70142;50.894;6.052;2023-10-09T00:09:10;18.80;71.37
80743;SHT31;70142;50.894;6.052;2023-10-09T00:12:02;18.67;71.56
80743;SHT31;70142;50.894;6.052;2023-10-09T00:14:42;18.65;71.92
80743;SHT31;70142;50.894;6.052;2023-10-09T00:17:21;18.62;71.82
80743;SHT31;70142;50.894;6.052;2023-10-09T00:19:55;18.59;72.14
80743;SHT31;70142;50.894;6.052;2023-10-09T00:22:32;18.66;71.71
80743;SHT31;70142;50.894;6.052;2023-10-09T00:25:10;18.57;71.95
80743;SHT31;70142;50.894;6.052;2023-10-09T00:27:43;18.57;72.01
80743;SHT31;70142;50.894;6.052;2023-10-09T00:30:18;18.70;71.66
80743;SHT31;70142;50.894;6.052;2023-10-09T00:32:56;18.63;71.67
80743;SHT31;70142;50.894;6.052;2023-10-09T00:35:37;18.52;72.04
80743;SHT31;70142;50.894;6.052;2023-10-09T00:38:18;18.55;72.28
80743;SHT31;70142;50.894;6.052;2023-10-09T00:40:56;18.59;71.95
80743;SHT31;70142;50.894;6.052;2023-10-09T00:43:36;18.55;72.19
80743;SHT31;70142;50.894;6.052;2023-10-09T00:46:10;18.57;72.13
80743;SHT31;70142;50.894;6.052;2023-10-09T00:48:59;18.52;72.40
80743;SHT31;70142;50.894;6.052;2023-10-09T00:51:36;18.46;72.62
80743;SHT31;70142;50.894;6.052;2023-10-09T00:54:14;18.56;72.41
80743;SHT31;70142;50.894;6.052;2023-10-09T00:56:51;18.59;72.32
80743;SHT31;70142;50.894;6.052;2023-10-09T00:59:32;18.57;72.24
80743;SHT31;70142;50.894;6.052;2023-10-09T01:02:06;18.49;72.44
80743;SHT31;70142;50.894;6.052;2023-10-09T01:04:41;18.53;72.55
80743;SHT31;70142;50.894;6.052;2023-10-09T01:07:16;18.66;72.30
80743;SHT31;70142;50.894;6.052;2023-10-09T01:09:57;18.73;72.12
80743;SHT31;70142;50.894;6.052;2023-10-09T01:12:42;18.67;72.19
80743;SHT31;70142;50.894;6.052;2023-10-09T01:15:16;18.77;71.93
80743;SHT31;70142;50.894;6.052;2023-10-09T01:18:08;18.82;71.93
80743;SHT31;70142;50.894;6.052;2023-10-09T01:20:43;18.83;71.90
80743;SHT31;70142;50.894;6.052;2023-10-09T01:23:18;18.84;71.89
80743;SHT31;70142;50.894;6.052;2023-10-09T01:25:52;18.96;71.57
80743;SHT31;70142;50.894;6.052;2023-10-09T01:28:25;18.97;71.55
80743;SHT31;70142;50.894;6.052;2023-10-09T01:31:00;19.03;71.31
80743;SHT31;70142;50.894;6.052;2023-10-09T01:33:34;19.10;71.17
80743;SHT31;70142;50.894;6.052;2023-10-09T01:36:08;19.14;71.03
80743;SHT31;70142;50.894;6.052;2023-10-09T01:38:48;19.23;70.79
80743;SHT31;70142;50.894;6.052;2023-10-09T01:41:22;19.23;70.90
80743;SHT31;70142;50.894;6.052;2023-10-09T01:43:55;19.24;70.79
80743;SHT31;70142;50.894;6.052;2023-10-09T01:46:33;19.16;70.91
80743;SHT31;70142;50.894;6.052;2023-10-09T01:49:06;19.14;71.08
80743;SHT31;70142;50.894;6.052;2023-10-09T01:51:49;19.13;71.15
80743;SHT31;70142;50.894;6.052;2023-10-09T01:54:25;19.16;71.18
80743;SHT31;70142;50.894;6.052;2023-10-09T01:57:09;19.10;71.15
80743;SHT31;70142;50.894;6.052;2023-10-09T01:59:45;19.07;71.30
80743;SHT31;70142;50.894;6.052;2023-10-09T02:02:20;19.04;71.53
80743;SHT31;70142;50.894;6.052;2023-10-09T02:05:07;19.00;71.73
80743;SHT31;70142;50.894;6.052;2023-10-09T02:07:43;19.00;71.78
80743;SHT31;70142;50.894;6.052;2023-10-09T02:10:25;18.96;71.79
80743;SHT31;70142;50.894;6.052;2023-10-09T02:13:05;19.00;71.74
80743;SHT31;70142;50.894;6.052;2023-10-09T02:15:43;19.08;71.53
80743;SHT31;70142;50.894;6.052;2023-10-09T02:18:25;19.07;71.61
80743;SHT31;70142;50.894;6.052;2023-10-09T02:21:12;19.06;71.56
80743;SHT31;70142;50.894;6.052;2023-10-09T02:23:45;19.03;71.82
80743;SHT31;70142;50.894;6.052;2023-10-09T02:26:23;18.99;71.78
80743;SHT31;70142;50.894;6.052;2023-10-09T02:28:58;19.00;71.86
80743;SHT31;70142;50.894;6.052;2023-10-09T02:31:31;19.03;71.75
80743;SHT31;70142;50.894;6.052;2023-10-09T02:34:13;18.94;71.70
80743;SHT31;70142;50.894;6.052;2023-10-09T02:36:48;18.94;71.77
80743;SHT31;70142;50.894;6.052;2023-10-09T02:39:29;18.90;71.78
80743;SHT31;70142;50.894;6.052;2023-10-09T02:42:09;18.84;71.76
80743;SHT31;70142;50.894;6.052;2023-10-09T02:44:55;18.83;71.49
80743;SHT31;70142;50.894;6.052;2023-10-09T02:47:31;18.89;71.44
80743;SHT31;70142;50.894;6.052;2023-10-09T02:50:10;18.87;71.24
80743;SHT31;70142;50.894;6.052;2023-10-09T02:52:50;18.82;71.73
80743;SHT31;70142;50.894;6.052;2023-10-09T02:55:31;18.74;71.80
80743;SHT31;70142;50.894;6.052;2023-10-09T02:58:12;18.77;71.62
80743;SHT31;70142;50.894;6.052;2023-10-09T03:00:53;18.77;71.53
80743;SHT31;70142;50.894;6.052;2023-10-09T03:03:26;18.72;71.50
80743;SHT31;70142;50.894;6.052;2023-10-09T03:06:00;18.69;71.60
80743;SHT31;70142;50.894;6.052;2023-10-09T03:08:33;18.69;71.72
80743;SHT31;70142;50.894;6.052;2023-10-09T03:11:08;18.62;71.65
80743;SHT31;70142;50.894;6.052;2023-10-09T03:13:49;18.59;71.68
80743;SHT31;70142;50.894;6.052;2023-10-09T03:16:23;18.60;71.67
80743;SHT31;70142;50.894;6.052;2023-10-09T03:18:56;18.57;71.38
80743;SHT31;70142;50.894;6.052;2023-10-09T03:21:31;18.63;71.18
80743;SHT31;70142;50.894;6.052;2023-10-09T03:24:05;18.63;71.19
80743;SHT31;70142;50.894;6.052;2023-10-09T03:26:39;18.67;70.87
80743;SHT31;70142;50.894;6.052;2023-10-09T03:29:15;18.66;71.06
80743;SHT31;70142;50.894;6.052;2023-10-09T03:31:51;18.57;71.19
80743;SHT31;70142;50.894;6.052;2023-10-09T03:34:25;18.49;71.49
80743;SHT31;70142;50.894;6.052;2023-10-09T03:36:59;18.48;71.56
80743;SHT31;70142;50.894;6.052;2023-10-09T03:39:39;18.51;71.42
80743;SHT31;70142;50.894;6.052;2023-10-09T03:42:13;18.52;71.46
80743;SHT31;70142;50.894;6.052;2023-10-09T03:44:52;18.52;71.59
80743;SHT31;70142;50.894;6.052;2023-10-09T03:47:29;18.48;71.61
80743;SHT31;70142;50.894;6.052;2023-10-09T03:50:04;18.45;71.58
80743;SHT31;70142;50.894;6.052;2023-10-09T03:52:54;18.39;71.65
80743;SHT31;70142;50.894;6.052;2023-10-09T03:55:27;18.43;71.78
80743;SHT31;70142;50.894;6.052;2023-10-09T03:58:00;18.38;71.66
80743;SHT31;70142;50.894;6.052;2023-10-09T04:00:35;18.35;71.85
80743;SHT31;70142;50.894;6.052;2023-10-09T04:03:17;18.35;71.77
80743;SHT31;70142;50.894;6.052;2023-10-09T04:05:55;18.45;71.39
80743;SHT31;70142;50.894;6.052;2023-10-09T04:08:28;18.45;71.42
80743;SHT31;70142;50.894;6.052;2023-10-09T04:11:02;18.45;71.42
80743;SHT31;70142;50.894;6.052;2023-10-09T04:13:36;18.45;71.41
80743;SHT31;70142;50.894;6.052;2023-10-09T04:16:13;18.38;71.34
80743;SHT31;70142;50.894;6.052;2023-10-09T04:19:05;18.43;71.35
80743;SHT31;70142;50.894;6.052;2023-10-09T04:21:43;18.38;71.35
80743;SHT31;70142;50.894;6.052;2023-10-09T04:24:15;18.41;71.53
80743;SHT31;70142;50.894;6.052;2023-10-09T04:26:57;18.41;71.49
80743;SHT31;70142;50.894;6.052;2023-10-09T04:29:30;18.38;71.73
80743;SHT31;70142;50.894;6.052;2023-10-09T04:32:12;18.36;71.76
80743;SHT31;70142;50.894;6.052;2023-10-09T04:34:50;18.38;71.79
80743;SHT31;70142;50.894;6.052;2023-10-09T04:37:29;18.31;72.04
80743;SHT31;70142;50.894;6.052;2023-10-09T04:40:09;18.33;72.12
80743;SHT31;70142;50.894;6.052;2023-10-09T04:42:47;18.29;71.97
80743;SHT31;70142;50.894;6.052;2023-10-09T04:45:35;18.31;72.00
80743;SHT31;70142;50.894;6.052;2023-10-09T04:48:27;18.31;72.01
80743;SHT31;70142;50.894;6.052;2023-10-09T04:51:09;18.25;72.04
80743;SHT31;70142;50.894;6.052;2023-10-09T04:54:06;18.32;71.84
80743;SHT31;70142;50.894;6.052;2023-10-09T04:57:05;18.26;71.80
80743;SHT31;70142;50.894;6.052;2023-10-09T04:59:49;18.24;71.75
80743;SHT31;70142;50.894;6.052;2023-10-09T05:02:23;18.21;71.78
80743;SHT31;70142;50.894;6.052;2023-10-09T05:05:11;18.28;71.66
80743;SHT31;70142;50.894;6.052;2023-10-09T05:08:10;18.25;71.71
80743;SHT31;70142;50.894;6.052;2023-10-09T05:10:53;18.16;71.97
80743;SHT31;70142;50.894;6.052;2023-10-09T05:13:49;18.13;72.17
80743;SHT31;70142;50.894;6.052;2023-10-09T05:16:41;18.09;72.20
80743;SHT31;70142;50.894;6.052;2023-10-09T05:19:26;18.13;72.11
80743;SHT31;70142;50.894;6.052;2023-10-09T05:22:07;18.08;72.47
80743;SHT31;70142;50.894;6.052;2023-10-09T05:24:39;17.98;72.64
80743;SHT31;70142;50.894;6.052;2023-10-09T05:27:18;18.04;72.44
80743;SHT31;70142;50.894;6.052;2023-10-09T05:29:51;18.06;72.49
80743;SHT31;70142;50.894;6.052;2023-10-09T05:32:45;18.11;72.15
80743;SHT31;70142;50.894;6.052;2023-10-09T05:35:22;18.09;72.38
80743;SHT31;70142;50.894;6.052;2023-10-09T05:38:03;18.12;72.27
80743;SHT31;70142;50.894;6.052;2023-10-09T05:40:46;18.05;72.20
80743;SHT31;70142;50.894;6.052;2023-10-09T05:43:25;18.08;72.14
80743;SHT31;70142;50.894;6.052;2023-10-09T05:46:12;18.11;71.74
80743;SHT31;70142;50.894;6.052;2023-10-09T05:48:47;18.05;72.08
80743;SHT31;70142;50.894;6.052;2023-10-09T05:51:41;18.09;71.90
80743;SHT31;70142;50.894;6.052;2023-10-09T05:54:26;18.05;71.76
80743;SHT31;70142;50.894;6.052;2023-10-09T05:57:16;17.98;71.96
80743;SHT31;70142;50.894;6.052;2023-10-09T06:00:08;17.97;71.82
80743;SHT31;70142;50.894;6.052;2023-10-09T06:02:59;17.91;71.97
80743;SHT31;70142;50.894;6.052;2023-10-09T06:05:57;17.90;71.98
80743;SHT31;70142;50.894;6.052;2023-10-09T06:08:38;17.88;71.95
80743;SHT31;70142;50.894;6.052;2023-10-09T06:11:42;17.88;72.00
80743;SHT31;70142;50.894;6.052;2023-10-09T06:14:23;17.92;72.08
80743;SHT31;70142;50.894;6.052;2023-10-09T06:17:19;17.91;72.07
80743;SHT31;70142;50.894;6.052;2023-10-09T06:19:57;17.98;71.92
80743;SHT31;70142;50.894;6.052;2023-10-09T06:22:57;18.04;71.60
80743;SHT31;70142;50.894;6.052;2023-10-09T06:25:29;18.05;71.70
80743;SHT31;70142;50.894;6.052;2023-10-09T06:28:06;18.13;71.57
80743;SHT31;70142;50.894;6.052;2023-10-09T06:30:40;18.13;71.39
80743;SHT31;70142;50.894;6.052;2023-10-09T06:33:16;18.25;71.24
80743;SHT31;70142;50.894;6.052;2023-10-09T06:36:01;18.32;71.09
80743;SHT31;70142;50.894;6.052;2023-10-09T06:38:40;18.38;70.81
80743;SHT31;70142;50.894;6.052;2023-10-09T06:41:40;18.31;71.02
80743;SHT31;70142;50.894;6.052;2023-10-09T06:44:18;18.24;71.24
80743;SHT31;70142;50.894;6.052;2023-10-09T06:47:19;18.31;71.43
80743;SHT31;70142;50.894;6.052;2023-10-09T06:49:56;18.32;71.47
80743;SHT31;70142;50.894;6.052;2023-10-09T06:52:43;18.32;71.51
80743;SHT31;70142;50.894;6.052;2023-10-09T06:55:57;18.36;71.36
80743;SHT31;70142;50.894;6.052;2023-10-09T06:58:37;18.29;71.26
80743;SHT31;70142;50.894;6.052;2023-10-09T07:01:16;18.33;71.59
80743;SHT31;70142;50.894;6.052;2023-10-09T07:04:12;18.28;71.72
80743;SHT31;70142;50.894;6.052;2023-10-09T07:06:52;18.24;71.70
80743;SHT31;70142;50.894;6.052;2023-10-09T07:09:24;18.26;71.78
80743;SHT31;70142;50.894;6.052;2023-10-09T07:12:14;18.26;71.91
80743;SHT31;70142;50.894;6.052;2023-10-09T07:14:46;18.19;71.90
80743;SHT31;70142;50.894;6.052;2023-10-09T07:17:40;18.16;72.13
80743;SHT31;70142;50.894;6.052;2023-10-09T07:20:18;18.24;72.19
80743;SHT31;70142;50.894;6.052;2023-10-09T07:23:05;18.25;71.95
80743;SHT31;70142;50.894;6.052;2023-10-09T07:25:47;18.26;72.17
80743;SHT31;70142;50.894;6.052;2023-10-09T07:28:32;18.33;71.94
80743;SHT31;70142;50.894;6.052;2023-10-09T07:31:19;18.41;71.73
80743;SHT31;70142;50.894;6.052;2023-10-09T07:34:13;18.42;71.73
80743;SHT31;70142;50.894;6.052;2023-10-09T07:37:26;18.28;72.00
80743;SHT31;70142;50.894;6.052;2023-10-09T07:40:03;18.42;71.85
80743;SHT31;70142;50.894;6.052;2023-10-09T07:42:39;18.48;71.75
80743;SHT31;70142;50.894;6.052;2023-10-09T07:45:18;18.42;71.52
80743;SHT31;70142;50.894;6.052;2023-10-09T07:48:05;18.36;71.79
80743;SHT31;70142;50.894;6.052;2023-10-09T07:50:48;18.38;72.00
80743;SHT31;70142;50.894;6.052;2023-10-09T07:53:21;18.35;71.96
80743;SHT31;70142;50.894;6.052;2023-10-09T07:55:59;18.45;71.97
80743;SHT31;70142;50.894;6.052;2023-10-09T07:58:38;18.43;71.74
80743;SHT31;70142;50.894;6.052;2023-10-09T08:01:19;18.46;71.87
80743;SHT31;70142;50.894;6.052;2023-10-09T08:03:55;18.49;71.65
80743;SHT31;70142;50.894;6.052;2023-10-09T08:06:41;18.53;71.57
80743;SHT31;70142;50.894;6.052;2023-10-09T08:09:35;18.57;71.87
80743;SHT31;70142;50.894;6.052;2023-10-09T08:12:19;18.67;71.37
80743;SHT31;70142;50.894;6.052;2023-10-09T08:15:11;18.93;70.95
80743;SHT31;70142;50.894;6.052;2023-10-09T08:17:57;19.14;70.21
80743;SHT31;70142;50.894;6.052;2023-10-09T08:20:31;19.18;69.81
80743;SHT31;70142;50.894;6.052;2023-10-09T08:23:24;19.32;69.81
80743;SHT31;70142;50.894;6.052;2023-10-09T08:26:03;19.34;69.50
80743;SHT31;70142;50.894;6.052;2023-10-09T08:28:45;19.37;69.46
80743;SHT31;70142;50.894;6.052;2023-10-09T08:31:19;19.32;69.65
80743;SHT31;70142;50.894;6.052;2023-10-09T08:34:06;19.26;69.25
80743;SHT31;70142;50.894;6.052;2023-10-09T08:36:44;19.17;69.65
80743;SHT31;70142;50.894;6.052;2023-10-09T08:39:25;19.20;69.59
80743;SHT31;70142;50.894;6.052;2023-10-09T08:41:59;19.10;69.98
80743;SHT31;70142;50.894;6.052;2023-10-09T08:44:39;19.28;69.22
80743;SHT31;70142;50.894;6.052;2023-10-09T08:47:16;19.46;68.90
80743;SHT31;70142;50.894;6.052;2023-10-09T08:49:49;19.65;68.43
80743;SHT31;70142;50.894;6.052;2023-10-09T08:52:23;19.89;67.83
80743;SHT31;70142;50.894;6.052;2023-10-09T08:54:58;19.99;67.42
80743;SHT31;70142;50.894;6.052;2023-10-09T08:57:31;19.99;67.11
80743;SHT31;70142;50.894;6.052;2023-10-09T09:00:06;20.02;67.03
80743;SHT31;70142;50.894;6.052;2023-10-09T09:02:43;20.05;67.28
80743;SHT31;70142;50.894;6.052;2023-10-09T09:05:19;20.23;66.73
80743;SHT31;70142;50.894;6.052;2023-10-09T09:07:53;20.37;65.85
80743;SHT31;70142;50.894;6.052;2023-10-09T09:10:30;20.59;65.72
80743;SHT31;70142;50.894;6.052;2023-10-09T09:13:14;20.52;65.94
80743;SHT31;70142;50.894;6.052;2023-10-09T09:15:50;20.57;65.91
80743;SHT31;70142;50.894;6.052;2023-10-09T09:18:25;20.76;65.73
80743;SHT31;70142;50.894;6.052;2023-10-09T09:21:17;20.90;65.23
80743;SHT31;70142;50.894;6.052;2023-10-09T09:24:00;20.79;65.06
80743;SHT31;70142;50.894;6.052;2023-10-09T09:26:39;20.72;64.77
80743;SHT31;70142;50.894;6.052;2023-10-09T09:29:17;20.84;64.53
80743;SHT31;70142;50.894;6.052;2023-10-09T09:31:53;21.05;64.17
80743;SHT31;70142;50.894;6.052;2023-10-09T09:34:26;21.14;63.63
80743;SHT31;70142;50.894;6.052;2023-10-09T09:37:01;21.15;63.55
80743;SHT31;70142;50.894;6.052;2023-10-09T09:39:36;21.46;62.23
80743;SHT31;70142;50.894;6.052;2023-10-09T09:42:28;21.69;62.13
80743;SHT31;70142;50.894;6.052;2023-10-09T09:45:07;21.79;60.39
80743;SHT31;70142;50.894;6.052;2023-10-09T09:47:44;22.02;59.77
80743;SHT31;70142;50.894;6.052;2023-10-09T09:50:24;21.96;59.44
80743;SHT31;70142;50.894;6.052;2023-10-09T09:53:00;22.26;58.36
80743;SHT31;70142;50.894;6.052;2023-10-09T09:55:34;22.26;56.49
80743;SHT31;70142;50.894;6.052;2023-10-09T09:58:18;22.46;57.24
80743;SHT31;70142;50.894;6.052;2023-10-09T10:00:53;22.37;57.04
80743;SHT31;70142;50.894;6.052;2023-10-09T10:03:37;22.37;57.12
80743;SHT31;70142;50.894;6.052;2023-10-09T10:06:12;22.75;57.20
80743;SHT31;70142;50.894;6.052;2023-10-09T10:08:50;22.70;55.88
80743;SHT31;70142;50.894;6.052;2023-10-09T10:11:42;22.63;55.73
80743;SHT31;70142;50.894;6.052;2023-10-09T10:14:18;22.90;55.85
80743;SHT31;70142;50.894;6.052;2023-10-09T10:17:02;22.91;55.59
80743;SHT31;70142;50.894;6.052;2023-10-09T10:20:00;23.00;54.92
80743;SHT31;70142;50.894;6.052;2023-10-09T10:23:17;23.05;53.80
80743;SHT31;70142;50.894;6.052;2023-10-09T10:25:52;22.92;53.54
80743;SHT31;70142;50.894;6.052;2023-10-09T10:28:32;22.91;54.01
80743;SHT31;70142;50.894;6.052;2023-10-09T10:31:16;22.94;53.13
80743;SHT31;70142;50.894;6.052;2023-10-09T10:34:05;22.92;54.44
80743;SHT31;70142;50.894;6.052;2023-10-09T10:36:43;23.08;53.30
80743;SHT31;70142;50.894;6.052;2023-10-09T10:39:16;22.97;53.52
80743;SHT31;70142;50.894;6.052;2023-10-09T10:41:54;22.80;53.83
80743;SHT31;70142;50.894;6.052;2023-10-09T10:44:29;22.83;54.04
80743;SHT31;70142;50.894;6.052;2023-10-09T10:47:12;22.91;53.79
80743;SHT31;70142;50.894;6.052;2023-10-09T10:49:58;22.78;53.93
80743;SHT31;70142;50.894;6.052;2023-10-09T10:52:44;22.67;54.67
80743;SHT31;70142;50.894;6.052;2023-10-09T10:55:17;22.72;54.97
80743;SHT31;70142;50.894;6.052;2023-10-09T10:57:50;22.98;55.09
80743;SHT31;70142;50.894;6.052;2023-10-09T11:00:32;23.11;54.77
80743;SHT31;70142;50.894;6.052;2023-10-09T11:03:37;23.19;53.73
80743;SHT31;70142;50.894;6.052;2023-10-09T11:06:28;23.12;54.74
80743;SHT31;70142;50.894;6.052;2023-10-09T11:09:09;23.01;54.43
80743;SHT31;70142;50.894;6.052;2023-10-09T11:11:53;22.80;54.91
80743;SHT31;70142;50.894;6.052;2023-10-09T11:14:45;22.75;54.74
80743;SHT31;70142;50.894;6.052;2023-10-09T11:17:37;22.74;55.36
80743;SHT31;70142;50.894;6.052;2023-10-09T11:20:15;22.78;55.12
80743;SHT31;70142;50.894;6.052;2023-10-09T11:22:58;22.72;55.54
80743;SHT31;70142;50.894;6.052;2023-10-09T11:25:49;22.71;55.72
80743;SHT31;70142;50.894;6.052;2023-10-09T11:28:24;22.81;55.89
80743;SHT31;70142;50.894;6.052;2023-10-09T11:31:09;22.95;55.76
80743;SHT31;70142;50.894;6.052;2023-10-09T11:33:44;23.07;55.64
80743;SHT31;70142;50.894;6.052;2023-10-09T11:36:19;23.10;55.14
80743;SHT31;70142;50.894;6.052;2023-10-09T11:39:03;23.29;54.61
80743;SHT31;70142;50.894;6.052;2023-10-09T11:41:45;23.25;54.45
80743;SHT31;70142;50.894;6.052;2023-10-09T11:44:34;23.15;54.62
80743;SHT31;70142;50.894;6.052;2023-10-09T11:47:07;23.16;55.06
80743;SHT31;70142;50.894;6.052;2023-10-09T11:50:04;23.42;54.60
80743;SHT31;70142;50.894;6.052;2023-10-09T11:52:59;23.32;53.94
80743;SHT31;70142;50.894;6.052;2023-10-09T11:55:51;23.53;54.33
80743;SHT31;70142;50.894;6.052;2023-10-09T11:58:25;23.65;54.28
80743;SHT31;70142;50.894;6.052;2023-10-09T12:00:59;23.76;53.77
80743;SHT31;70142;50.894;6.052;2023-10-09T12:03:36;23.43;53.32
80743;SHT31;70142;50.894;6.052;2023-10-09T12:06:09;23.39;53.10
80743;SHT31;70142;50.894;6.052;2023-10-09T12:08:46;23.52;52.18
80743;SHT31;70142;50.894;6.052;2023-10-09T12:11:19;23.51;51.98
80743;SHT31;70142;50.894;6.052;2023-10-09T12:14:01;23.55;51.70
80743;SHT31;70142;50.894;6.052;2023-10-09T12:16:36;23.35;51.49
80743;SHT31;70142;50.894;6.052;2023-10-09T12:19:12;23.43;52.05
80743;SHT31;70142;50.894;6.052;2023-10-09T12:21:46;23.61;51.71
80743;SHT31;70142;50.894;6.052;2023-10-09T12:24:20;23.61;51.27
80743;SHT31;70142;50.894;6.052;2023-10-09T12:26:53;23.43;51.84
80743;SHT31;70142;50.894;6.052;2023-10-09T12:29:27;23.24;51.67
80743;SHT31;70142;50.894;6.052;2023-10-09T12:32:02;23.21;52.18
80743;SHT31;70142;50.894;6.052;2023-10-09T12:34:35;23.38;52.00
80743;SHT31;70142;50.894;6.052;2023-10-09T12:37:10;23.35;52.15
80743;SHT31;70142;50.894;6.052;2023-10-09T12:39:48;23.33;52.74
80743;SHT31;70142;50.894;6.052;2023-10-09T12:42:27;23.10;53.24
80743;SHT31;70142;50.894;6.052;2023-10-09T12:45:00;22.94;54.02
80743;SHT31;70142;50.894;6.052;2023-10-09T12:47:39;23.18;54.08
80743;SHT31;70142;50.894;6.052;2023-10-09T12:50:14;23.07;53.61
80743;SHT31;70142;50.894;6.052;2023-10-09T12:52:48;23.19;53.66
80743;SHT31;70142;50.894;6.052;2023-10-09T12:55:24;23.05;53.68
80743;SHT31;70142;50.894;6.052;2023-10-09T12:58:04;22.78;54.40
80743;SHT31;70142;50.894;6.052;2023-10-09T13:00:38;22.68;54.95
80743;SHT31;70142;50.894;6.052;2023-10-09T13:03:17;22.75;54.92
80743;SHT31;70142;50.894;6.052;2023-10-09T13:05:53;22.80;54.59
80743;SHT31;70142;50.894;6.052;2023-10-09T13:08:29;22.68;55.07
80743;SHT31;70142;50.894;6.052;2023-10-09T13:11:10;22.60;55.43
80743;SHT31;70142;50.894;6.052;2023-10-09T13:13:45;22.67;55.74
80743;SHT31;70142;50.894;6.052;2023-10-09T13:16:22;22.75;55.90
80743;SHT31;70142;50.894;6.052;2023-10-09T13:18:58;22.61;56.04
80743;SHT31;70142;50.894;6.052;2023-10-09T13:21:39;22.53;56.57
80743;SHT31;70142;50.894;6.052;2023-10-09T13:24:14;22.53;57.02
80743;SHT31;70142;50.894;6.052;2023-10-09T13:26:49;22.60;57.22
80743;SHT31;70142;50.894;6.052;2023-10-09T13:29:30;22.72;57.15
80743;SHT31;70142;50.894;6.052;2023-10-09T13:32:06;22.75;56.93
80743;SHT31;70142;50.894;6.052;2023-10-09T13:34:45;22.64;56.73
80743;SHT31;70142;50.894;6.052;2023-10-09T13:37:20;22.51;57.13
80743;SHT31;70142;50.894;6.052;2023-10-09T13:39:54;22.53;57.41
80743;SHT31;70142;50.894;6.052;2023-10-09T13:42:29;22.50;56.90
80743;SHT31;70142;50.894;6.052;2023-10-09T13:45:03;22.60;56.87
80743;SHT31;70142;50.894;6.052;2023-10-09T13:47:47;22.53;57.20
80743;SHT31;70142;50.894;6.052;2023-10-09T13:50:23;22.51;57.12
80743;SHT31;70142;50.894;6.052;2023-10-09T13:52:56;22.83;57.62
80743;SHT31;70142;50.894;6.052;2023-10-09T13:55:36;23.14;57.11
80743;SHT31;70142;50.894;6.052;2023-10-09T13:58:19;23.33;55.83
80743;SHT31;70142;50.894;6.052;2023-10-09T14:00:53;23.53;55.17
80743;SHT31;70142;50.894;6.052;2023-10-09T14:03:31;23.49;55.12
80743;SHT31;70142;50.894;6.052;2023-10-09T14:06:05;23.21;55.59
80743;SHT31;70142;50.894;6.052;2023-10-09T14:08:44;23.35;55.03
80743;SHT31;70142;50.894;6.052;2023-10-09T14:11:17;23.21;54.74
80743;SHT31;70142;50.894;6.052;2023-10-09T14:13:52;22.98;55.68
80743;SHT31;70142;50.894;6.052;2023-10-09T14:16:42;23.32;55.65
80743;SHT31;70142;50.894;6.052;2023-10-09T14:19:16;23.37;55.44
80743;SHT31;70142;50.894;6.052;2023-10-09T14:21:53;23.22;55.68
80743;SHT31;70142;50.894;6.052;2023-10-09T14:24:26;23.24;54.86
80743;SHT31;70142;50.894;6.052;2023-10-09T14:27:05;22.97;55.34
80743;SHT31;70142;50.894;6.052;2023-10-09T14:29:44;23.00;55.72
80743;SHT31;70142;50.894;6.052;2023-10-09T14:32:20;22.86;55.34
80743;SHT31;70142;50.894;6.052;2023-10-09T14:35:00;22.75;55.83
80743;SHT31;70142;50.894;6.052;2023-10-09T14:37:34;23.00;55.77
80743;SHT31;70142;50.894;6.052;2023-10-09T14:40:08;23.24;55.43
80743;SHT31;70142;50.894;6.052;2023-10-09T14:42:44;23.12;55.20
80743;SHT31;70142;50.894;6.052;2023-10-09T14:45:19;23.22;55.19
80743;SHT31;70142;50.894;6.052;2023-10-09T14:47:56;22.70;56.85
80743;SHT31;70142;50.894;6.052;2023-10-09T14:50:32;22.56;56.74
80743;SHT31;70142;50.894;6.052;2023-10-09T14:53:10;22.60;57.15
80743;SHT31;70142;50.894;6.052;2023-10-09T14:55:45;22.53;56.82
80743;SHT31;70142;50.894;6.052;2023-10-09T14:58:19;23.00;56.63
80743;SHT31;70142;50.894;6.052;2023-10-09T15:00:56;23.24;55.50
80743;SHT31;70142;50.894;6.052;2023-10-09T15:03:30;23.16;55.79
80743;SHT31;70142;50.894;6.052;2023-10-09T15:06:09;23.29;55.40
80743;SHT31;70142;50.894;6.052;2023-10-09T15:08:43;23.21;55.99
80743;SHT31;70142;50.894;6.052;2023-10-09T15:11:21;23.29;55.79
80743;SHT31;70142;50.894;6.052;2023-10-09T15:13:55;23.25;56.32
80743;SHT31;70142;50.894;6.052;2023-10-09T15:16:31;23.26;55.85
80743;SHT31;70142;50.894;6.052;2023-10-09T15:19:04;23.24;56.42
80743;SHT31;70142;50.894;6.052;2023-10-09T15:21:39;23.04;56.17
80743;SHT31;70142;50.894;6.052;2023-10-09T15:24:16;22.97;56.66
80743;SHT31;70142;50.894;6.052;2023-10-09T15:26:51;22.87;56.91
80743;SHT31;70142;50.894;6.052;2023-10-09T15:29:28;22.64;57.68
80743;SHT31;70142;50.894;6.052;2023-10-09T15:32:04;22.39;58.33
80743;SHT31;70142;50.894;6.052;2023-10-09T15:34:37;22.20;58.76
80743;SHT31;70142;50.894;6.052;2023-10-09T15:37:10;21.99;59.22
80743;SHT31;70142;50.894;6.052;2023-10-09T15:39:45;21.89;59.75
80743;SHT31;70142;50.894;6.052;2023-10-09T15:42:19;22.09;59.29
80743;SHT31;70142;50.894;6.052;2023-10-09T15:44:52;22.02;59.50
80743;SHT31;70142;50.894;6.052;2023-10-09T15:47:28;22.06;59.55
80743;SHT31;70142;50.894;6.052;2023-10-09T15:50:02;22.05;59.65
80743;SHT31;70142;50.894;6.052;2023-10-09T15:52:36;21.93;59.59
80743;SHT31;70142;50.894;6.052;2023-10-09T15:55:10;21.88;59.65
80743;SHT31;70142;50.894;6.052;2023-10-09T15:57:46;21.83;59.80
80743;SHT31;70142;50.894;6.052;2023-10-09T16:00:22;21.81;60.27
80743;SHT31;70142;50.894;6.052;2023-10-09T16:03:02;21.72;60.06
80743;SHT31;70142;50.894;6.052;2023-10-09T16:05:36;21.61;60.78
80743;SHT31;70142;50.894;6.052;2023-10-09T16:08:09;21.65;60.49
80743;SHT31;70142;50.894;6.052;2023-10-09T16:10:45;21.48;60.83
80743;SHT31;70142;50.894;6.052;2023-10-09T16:13:19;21.42;61.19
80743;SHT31;70142;50.894;6.052;2023-10-09T16:15:53;21.51;60.77
80743;SHT31;70142;50.894;6.052;2023-10-09T16:18:29;21.49;61.09
80743;SHT31;70142;50.894;6.052;2023-10-09T16:21:04;21.49;61.00
80743;SHT31;70142;50.894;6.052;2023-10-09T16:23:40;21.35;61.27
80743;SHT31;70142;50.894;6.052;2023-10-09T16:26:14;21.21;61.24
80743;SHT31;70142;50.894;6.052;2023-10-09T16:28:48;21.17;61.51
80743;SHT31;70142;50.894;6.052;2023-10-09T16:31:23;20.97;62.17
80743;SHT31;70142;50.894;6.052;2023-10-09T16:33:58;20.93;62.31
80743;SHT31;70142;50.894;6.052;2023-10-09T16:36:31;20.94;62.22
80743;SHT31;70142;50.894;6.052;2023-10-09T16:39:05;20.90;62.35
80743;SHT31;70142;50.894;6.052;2023-10-09T16:41:50;20.85;62.16
80743;SHT31;70142;50.894;6.052;2023-10-09T16:44:25;20.70;62.64
80743;SHT31;70142;50.894;6.052;2023-10-09T16:47:00;20.60;62.69